Time;durP1;ratioP1;P1;durP2;ratioP2;P2;SDS_P1;SDS_P2;PMS_P1;PMS_P2;Temp;Humidity;BMP_temperature;BMP_pressure;BME280_temperature;BME280_humidity;BME280_pressure;Samples;Min_cycle;Max_cycle;Signal;HPM_P1;HPM_P2
2022/12/31 00:02:07;;;;;;;0.40;0.40;;;15.20;90.90;;;;;;5092477;28;20304;-67
2022/12/31 00:04:55;;;;;;;0.40;0.40;;;15.20;90.80;;;;;;5093496;28;20196;-67
2022/12/31 00:07:43;;;;;;;0.40;0.40;;;15.20;90.80;;;;;;5091156;28;20232;-66
2022/12/31 00:10:33;;;;;;;0.40;0.40;;;15.20;90.90;;;;;;5092726;28;20231;-66
2022/12/31 00:13:21;;;;;;;0.40;0.40;;;15.20;90.80;;;;;;5092406;28;20195;-67
2022/12/31 00:16:12;;;;;;;0.40;0.40;;;15.20;90.90;;;;;;5092665;28;20813;-66
2022/12/31 00:19:00;;;;;;;0.40;0.40;;;15.20;90.80;;;;;;5092737;28;20333;-67
2022/12/31 00:21:49;;;;;;;0.40;0.40;;;15.20;90.90;;;;;;5092079;28;20294;-67
2022/12/31 00:24:37;;;;;;;0.40;0.40;;;15.20;90.90;;;;;;5092284;28;20237;-67
2022/12/31 00:27:25;;;;;;;0.40;0.40;;;15.20;90.80;;;;;;5092244;28;20248;-67
2022/12/31 00:30:13;;;;;;;0.40;0.40;;;15.20;90.80;;;;;;5092399;28;20576;-67
2022/12/31 00:33:03;;;;;;;0.40;0.40;;;15.20;90.80;;;;;;5091942;28;20196;-67
2022/12/31 00:35:51;;;;;;;0.40;0.40;;;15.20;90.80;;;;;;5114117;22;20318;-70
2022/12/31 00:38:40;;;;;;;0.40;0.40;;;15.20;90.90;;;;;;5094847;28;20206;-69
2022/12/31 00:41:29;;;;;;;0.40;0.40;;;15.20;90.90;;;;;;5094692;28;20220;-69
2022/12/31 00:44:17;;;;;;;0.40;0.40;;;15.20;91.00;;;;;;5093884;28;20192;-68
2022/12/31 00:47:05;;;;;;;0.40;0.40;;;15.20;91.00;;;;;;5092329;28;20365;-69
2022/12/31 00:49:54;;;;;;;0.40;0.40;;;15.20;91.00;;;;;;5093709;28;20259;-69
2022/12/31 00:52:43;;;;;;;0.40;0.40;;;15.20;91.10;;;;;;5094952;28;20200;-69
2022/12/31 00:55:31;;;;;;;0.40;0.40;;;15.20;91.00;;;;;;5094269;28;20210;-69
2022/12/31 00:58:19;;;;;;;0.40;0.40;;;15.20;91.00;;;;;;5093322;28;20231;-69
2022/12/31 01:01:11;;;;;;;0.40;0.40;;;15.20;91.10;;;;;;5093468;28;20231;-69
2022/12/31 01:04:02;;;;;;;0.40;0.40;;;15.20;91.10;;;;;;5093545;28;20207;-68
2022/12/31 01:06:52;;;;;;;0.40;0.40;;;15.20;91.10;;;;;;5094565;28;20295;-70
2022/12/31 01:09:40;;;;;;;0.40;0.40;;;15.20;91.10;;;;;;5094624;28;20215;-68
2022/12/31 01:12:28;;;;;;;0.40;0.40;;;15.30;91.20;;;;;;5092738;28;20200;-69
2022/12/31 01:15:16;;;;;;;0.40;0.40;;;15.30;91.10;;;;;;5094014;28;20259;-68
2022/12/31 01:18:06;;;;;;;0.40;0.40;;;15.20;90.70;;;;;;5092127;28;20245;-68
2022/12/31 01:20:54;;;;;;;0.40;0.40;;;15.30;91.00;;;;;;5092289;28;20196;-68
2022/12/31 01:23:43;;;;;;;0.40;0.40;;;15.30;91.20;;;;;;5094087;28;20277;-68
2022/12/31 01:26:31;;;;;;;0.40;0.40;;;15.30;91.20;;;;;;5093655;28;20306;-70
2022/12/31 01:29:19;;;;;;;0.40;0.40;;;15.30;91.10;;;;;;5093336;28;20279;-69
2022/12/31 01:32:07;;;;;;;0.40;0.40;;;15.30;91.10;;;;;;5092198;28;20272;-68
2022/12/31 01:34:56;;;;;;;0.40;0.40;;;15.30;91.00;;;;;;5093741;28;20289;-69
2022/12/31 01:37:44;;;;;;;0.40;0.40;;;15.30;91.10;;;;;;5092516;28;20264;-68
2022/12/31 01:40:38;;;;;;;0.40;0.40;;;15.30;91.10;;;;;;5093569;28;20226;-69
2022/12/31 01:43:45;;;;;;;0.40;0.40;;;15.30;91.10;;;;;;5093962;28;20227;-69
2022/12/31 01:46:35;;;;;;;0.40;0.40;;;15.30;91.10;;;;;;5094007;28;20236;-68
2022/12/31 01:49:30;;;;;;;0.40;0.40;;;15.30;91.00;;;;;;5096453;28;20204;-69
2022/12/31 01:52:34;;;;;;;0.40;0.40;;;15.30;91.10;;;;;;5096740;28;20196;-69
2022/12/31 01:55:25;;;;;;;0.40;0.40;;;15.30;91.10;;;;;;5097281;28;20575;-68
2022/12/31 01:58:18;;;;;;;0.40;0.40;;;15.30;91.10;;;;;;5098028;28;20298;-69
2022/12/31 02:01:08;;;;;;;0.40;0.40;;;15.30;91.10;;;;;;5096510;28;20275;-70
2022/12/31 02:03:57;;;;;;;0.40;0.40;;;15.30;91.10;;;;;;5096976;28;20312;-70
2022/12/31 02:06:49;;;;;;;0.40;0.40;;;15.30;91.10;;;;;;5096132;28;20760;-69
2022/12/31 02:09:40;;;;;;;0.40;0.40;;;15.30;91.10;;;;;;5096287;28;20253;-68
2022/12/31 02:12:28;;;;;;;0.40;0.40;;;15.30;91.10;;;;;;5097295;28;20196;-69
2022/12/31 02:15:21;;;;;;;0.40;0.40;;;15.30;91.10;;;;;;5096507;28;20204;-69
2022/12/31 02:18:16;;;;;;;0.40;0.40;;;15.30;91.20;;;;;;5097264;28;20206;-68
2022/12/31 02:21:28;;;;;;;0.40;0.40;;;15.30;91.20;;;;;;5096182;28;20228;-69
2022/12/31 02:24:33;;;;;;;0.40;0.40;;;15.30;91.30;;;;;;5097280;28;20740;-68
2022/12/31 02:27:34;;;;;;;0.40;0.40;;;15.30;91.40;;;;;;5096369;28;20238;-69
2022/12/31 02:30:24;;;;;;;0.40;0.40;;;15.30;91.40;;;;;;5096844;28;20200;-68
2022/12/31 02:33:15;;;;;;;0.40;0.40;;;15.30;91.30;;;;;;5096502;28;20202;-69
2022/12/31 02:36:10;;;;;;;0.40;0.40;;;15.30;91.70;;;;;;5096238;28;20303;-69
2022/12/31 02:38:59;;;;;;;0.40;0.40;;;15.30;91.50;;;;;;5095956;28;20232;-69
2022/12/31 02:41:50;;;;;;;0.40;0.40;;;15.30;91.30;;;;;;5096199;28;20256;-70
2022/12/31 02:44:40;;;;;;;0.40;0.40;;;15.30;91.50;;;;;;5094798;28;20652;-67
2022/12/31 02:47:43;;;;;;;0.40;0.40;;;15.30;91.40;;;;;;5097008;28;20298;-68
2022/12/31 02:50:54;;;;;;;0.40;0.40;;;15.30;91.30;;;;;;5087199;28;20205;-69
2022/12/31 02:54:02;;;;;;;0.40;0.40;;;15.30;91.30;;;;;;5096828;28;20721;-70
2022/12/31 02:57:00;;;;;;;0.40;0.40;;;15.40;91.40;;;;;;5096145;28;20773;-69
2022/12/31 03:03:11;;;;;;;0.40;0.40;;;15.40;91.30;;;;;;5033446;28;20325;-68
2022/12/31 03:06:01;;;;;;;0.40;0.40;;;15.40;91.40;;;;;;5094603;28;20224;-68
2022/12/31 03:15:18;;;;;;;0.40;0.40;;;15.40;91.40;;;;;;5095157;28;20191;-69
2022/12/31 03:18:11;;;;;;;0.40;0.40;;;15.40;91.40;;;;;;5094833;28;20203;-69
2022/12/31 03:27:12;;;;;;;0.40;0.40;;;15.40;91.40;;;;;;5095089;28;20650;-69
2022/12/31 03:30:00;;;;;;;0.40;0.40;;;15.40;91.40;;;;;;5094475;28;20224;-70
2022/12/31 03:32:49;;;;;;;0.40;0.40;;;15.40;91.40;;;;;;5094912;28;20207;-69
2022/12/31 03:35:39;;;;;;;0.40;0.40;;;15.40;91.40;;;;;;5094977;28;20326;-68
2022/12/31 03:38:28;;;;;;;0.40;0.40;;;15.40;91.40;;;;;;5094606;28;20203;-69
2022/12/31 03:41:16;;;;;;;0.40;0.40;;;15.40;91.40;;;;;;5094342;28;20200;-69
2022/12/31 03:44:05;;;;;;;0.40;0.40;;;15.40;91.40;;;;;;5094509;28;20278;-68
2022/12/31 03:46:53;;;;;;;0.40;0.40;;;15.40;91.40;;;;;;5094743;28;20219;-68
2022/12/31 03:49:41;;;;;;;0.40;0.40;;;15.40;91.40;;;;;;5095947;28;20283;-69
2022/12/31 03:52:29;;;;;;;0.40;0.40;;;15.40;91.50;;;;;;5095020;28;20208;-69
2022/12/31 03:55:19;;;;;;;0.40;0.40;;;15.40;91.20;;;;;;5094087;28;20200;-68
2022/12/31 03:58:07;;;;;;;0.40;0.40;;;15.40;91.50;;;;;;5094787;28;20228;-69
2022/12/31 04:00:55;;;;;;;0.40;0.40;;;15.40;91.60;;;;;;5093322;28;20696;-69
2022/12/31 04:03:43;;;;;;;0.40;0.40;;;15.40;91.50;;;;;;5094725;28;20232;-67
2022/12/31 04:06:32;;;;;;;0.40;0.40;;;15.40;91.50;;;;;;5094967;28;20735;-69
2022/12/31 04:09:20;;;;;;;0.40;0.40;;;15.40;91.50;;;;;;5094401;28;20696;-69
2022/12/31 04:12:09;;;;;;;0.40;0.40;;;15.40;91.60;;;;;;5094070;28;20702;-69
2022/12/31 04:14:58;;;;;;;0.40;0.40;;;15.40;91.60;;;;;;5095015;28;20234;-69
2022/12/31 04:17:46;;;;;;;0.40;0.40;;;15.50;91.70;;;;;;5094016;28;20221;-69
2022/12/31 04:20:34;;;;;;;0.40;0.40;;;15.40;91.60;;;;;;5093390;28;20196;-69
2022/12/31 04:23:22;;;;;;;0.40;0.40;;;15.40;91.60;;;;;;5094640;28;20222;-70
2022/12/31 04:26:10;;;;;;;0.40;0.40;;;15.40;91.60;;;;;;5094135;28;20298;-68
2022/12/31 04:29:00;;;;;;;0.40;0.40;;;15.40;91.60;;;;;;5094148;28;20209;-68
2022/12/31 04:31:48;;;;;;;0.40;0.40;;;15.40;91.60;;;;;;5093380;28;20646;-68
2022/12/31 04:34:36;;;;;;;0.40;0.40;;;15.40;91.60;;;;;;5094026;28;20196;-69
2022/12/31 04:37:24;;;;;;;0.40;0.40;;;15.40;91.50;;;;;;5092666;28;20239;-68
2022/12/31 04:40:12;;;;;;;0.40;0.40;;;15.40;91.60;;;;;;5093438;28;20200;-69
2022/12/31 04:43:00;;;;;;;0.40;0.40;;;15.50;91.60;;;;;;5095346;28;20625;-67
2022/12/31 04:45:50;;;;;;;0.40;0.40;;;15.40;91.60;;;;;;5095163;28;20645;-69
2022/12/31 04:48:38;;;;;;;0.40;0.40;;;15.50;91.60;;;;;;5094272;28;20200;-68
2022/12/31 04:51:27;;;;;;;0.40;0.40;;;15.40;91.60;;;;;;5076419;28;20249;-69
2022/12/31 04:54:15;;;;;;;0.40;0.40;;;15.40;91.60;;;;;;5073368;28;20623;-69
2022/12/31 04:57:03;;;;;;;0.40;0.40;;;15.50;91.60;;;;;;5075026;28;20248;-69
2022/12/31 04:59:52;;;;;;;0.40;0.40;;;15.50;91.60;;;;;;5074362;28;20274;-69
2022/12/31 05:02:41;;;;;;;0.40;0.40;;;15.50;91.60;;;;;;5073918;28;20245;-69
2022/12/31 05:05:29;;;;;;;0.40;0.40;;;15.40;91.40;;;;;;5073664;28;20270;-69
2022/12/31 05:08:18;;;;;;;0.40;0.40;;;15.50;91.70;;;;;;5073304;28;20203;-68
2022/12/31 05:11:06;;;;;;;0.40;0.40;;;15.50;91.70;;;;;;5074139;28;20539;-69
2022/12/31 05:13:54;;;;;;;0.57;0.57;;;15.40;91.60;;;;;;5073328;28;20678;-69
2022/12/31 05:16:43;;;;;;;0.40;0.40;;;15.40;91.60;;;;;;5073318;28;20282;-70
2022/12/31 05:19:32;;;;;;;0.40;0.40;;;15.40;91.70;;;;;;5072879;28;20196;-69
2022/12/31 05:22:29;;;;;;;0.40;0.40;;;15.50;91.70;;;;;;5072402;28;20569;-70
2022/12/31 05:25:17;;;;;;;0.40;0.40;;;15.40;91.70;;;;;;5072759;28;20224;-68
2022/12/31 05:28:05;;;;;;;0.40;0.40;;;15.50;91.70;;;;;;5072850;28;20560;-68
2022/12/31 05:30:53;;;;;;;0.40;0.40;;;15.50;91.80;;;;;;5073589;28;20205;-68
2022/12/31 05:33:42;;;;;;;0.40;0.40;;;15.40;91.80;;;;;;5073291;28;20193;-69
2022/12/31 05:36:31;;;;;;;0.40;0.40;;;15.40;91.80;;;;;;5073981;28;20232;-69
2022/12/31 05:39:19;;;;;;;0.40;0.40;;;15.50;91.80;;;;;;5073091;28;20689;-68
2022/12/31 05:42:07;;;;;;;0.40;0.40;;;15.50;91.90;;;;;;5072993;28;20690;-69
2022/12/31 05:44:55;;;;;;;0.40;0.40;;;15.50;92.00;;;;;;5072852;28;20228;-69
2022/12/31 05:47:43;;;;;;;0.40;0.40;;;15.50;91.90;;;;;;5073961;28;20201;-69
2022/12/31 05:50:31;;;;;;;0.40;0.40;;;15.50;92.00;;;;;;5073612;28;20238;-68
2022/12/31 05:53:21;;;;;;;0.40;0.40;;;15.50;92.00;;;;;;5073040;28;20571;-68
2022/12/31 05:56:09;;;;;;;0.40;0.40;;;15.50;92.00;;;;;;5073904;28;20640;-69
2022/12/31 05:58:57;;;;;;;0.40;0.40;;;15.50;91.90;;;;;;5073587;28;20670;-67
2022/12/31 06:01:45;;;;;;;0.40;0.40;;;15.50;92.00;;;;;;5074169;28;20639;-69
2022/12/31 06:04:34;;;;;;;0.40;0.40;;;15.50;92.00;;;;;;5072773;28;20303;-69
2022/12/31 06:07:22;;;;;;;0.40;0.40;;;15.50;92.00;;;;;;5073649;28;20274;-69
2022/12/31 06:10:11;;;;;;;0.40;0.40;;;15.50;92.00;;;;;;5073162;28;20343;-68
2022/12/31 06:12:59;;;;;;;0.40;0.40;;;15.50;92.00;;;;;;5073831;28;20676;-71
2022/12/31 06:15:47;;;;;;;0.40;0.40;;;15.50;92.00;;;;;;5073774;28;20213;-68
2022/12/31 06:18:36;;;;;;;0.40;0.40;;;15.50;92.00;;;;;;5072738;28;20200;-69
2022/12/31 06:21:24;;;;;;;0.40;0.40;;;15.50;92.00;;;;;;5073642;28;20685;-68
2022/12/31 06:24:12;;;;;;;1.15;1.15;;;15.50;92.20;;;;;;5071992;28;20718;-69
2022/12/31 06:27:01;;;;;;;0.73;0.73;;;15.50;92.10;;;;;;5072936;28;20725;-69
2022/12/31 06:29:49;;;;;;;0.40;0.40;;;15.50;92.10;;;;;;5071420;28;20226;-69
2022/12/31 06:32:38;;;;;;;0.40;0.40;;;15.50;92.10;;;;;;5072023;28;20228;-69
2022/12/31 06:35:26;;;;;;;0.40;0.40;;;15.50;91.80;;;;;;5075464;28;20197;-69
2022/12/31 06:38:14;;;;;;;0.40;0.40;;;15.50;92.10;;;;;;5113998;22;20247;-64
2022/12/31 06:41:03;;;;;;;0.40;0.40;;;15.50;92.20;;;;;;5095569;28;20257;-67
2022/12/31 06:43:52;;;;;;;0.40;0.40;;;15.50;91.90;;;;;;5094605;28;20703;-65
2022/12/31 06:46:40;;;;;;;0.40;0.40;;;15.50;92.20;;;;;;5095762;28;20226;-65
2022/12/31 06:49:29;;;;;;;0.40;0.40;;;15.50;92.10;;;;;;5095378;28;20239;-65
2022/12/31 06:52:17;;;;;;;0.40;0.40;;;15.50;92.20;;;;;;5095554;28;20282;-65
2022/12/31 06:55:06;;;;;;;0.40;0.40;;;15.50;92.20;;;;;;5094297;28;20226;-65
2022/12/31 06:57:55;;;;;;;0.40;0.40;;;15.50;92.20;;;;;;5094943;28;20370;-65
2022/12/31 07:00:53;;;;;;;0.40;0.40;;;15.50;92.20;;;;;;5094066;28;20203;-64
2022/12/31 07:03:46;;;;;;;0.40;0.40;;;15.50;92.20;;;;;;5094596;28;20204;-65
2022/12/31 07:06:42;;;;;;;0.40;0.40;;;15.50;92.20;;;;;;5095068;28;20223;-64
2022/12/31 07:09:37;;;;;;;0.40;0.40;;;15.50;92.20;;;;;;5092766;28;20223;-64
2022/12/31 07:12:38;;;;;;;0.43;0.43;;;15.50;92.20;;;;;;5095057;28;20337;-65
2022/12/31 07:15:45;;;;;;;0.40;0.40;;;15.50;92.20;;;;;;5093976;28;20188;-64
2022/12/31 07:18:41;;;;;;;0.40;0.40;;;15.50;92.30;;;;;;5094298;28;20203;-65
2022/12/31 07:21:35;;;;;;;0.40;0.40;;;15.50;92.30;;;;;;5094374;28;20204;-65
2022/12/31 07:24:24;;;;;;;0.40;0.40;;;15.50;92.30;;;;;;5093664;28;20213;-65
2022/12/31 07:27:30;;;;;;;0.40;0.40;;;15.60;92.30;;;;;;5095168;28;20243;-64
2022/12/31 07:30:21;;;;;;;0.40;0.40;;;15.60;92.30;;;;;;5094166;28;20248;-65
2022/12/31 07:33:23;;;;;;;0.40;0.40;;;15.60;92.30;;;;;;5094589;28;20212;-64
2022/12/31 07:36:26;;;;;;;0.40;0.40;;;15.60;92.60;;;;;;5094699;28;20188;-64
2022/12/31 07:39:20;;;;;;;0.40;0.40;;;15.60;92.30;;;;;;5095096;28;20680;-64
2022/12/31 07:42:16;;;;;;;0.40;0.40;;;15.60;92.30;;;;;;5094831;28;20200;-65
2022/12/31 07:45:13;;;;;;;0.40;0.40;;;15.60;92.30;;;;;;5092999;28;20241;-65
2022/12/31 07:48:01;;;;;;;0.40;0.40;;;15.60;92.30;;;;;;5094619;28;20219;-64
2022/12/31 07:50:53;;;;;;;0.40;0.40;;;15.60;92.30;;;;;;5092627;28;20199;-64
2022/12/31 07:53:42;;;;;;;0.40;0.40;;;15.60;92.30;;;;;;5093849;28;20280;-65
2022/12/31 07:56:30;;;;;;;0.40;0.40;;;15.60;92.30;;;;;;5094315;28;20218;-65
2022/12/31 07:59:35;;;;;;;0.40;0.40;;;15.60;92.30;;;;;;5094219;28;20192;-64
2022/12/31 08:02:38;;;;;;;0.40;0.40;;;15.60;92.30;;;;;;5097477;28;20256;-64
2022/12/31 08:05:31;;;;;;;0.40;0.40;;;15.60;92.30;;;;;;5112570;28;20293;-64
2022/12/31 08:08:31;;;;;;;0.40;0.40;;;15.60;92.30;;;;;;5113021;28;20223;-64
2022/12/31 08:11:29;;;;;;;0.40;0.40;;;15.60;92.30;;;;;;5101317;28;20249;-65
2022/12/31 08:14:19;;;;;;;0.40;0.40;;;15.60;92.30;;;;;;5094411;28;20199;-64
2022/12/31 08:17:11;;;;;;;0.40;0.40;;;15.60;92.30;;;;;;5094283;28;20212;-64
2022/12/31 08:20:00;;;;;;;0.40;0.40;;;15.60;92.30;;;;;;5094153;28;20211;-65
2022/12/31 08:23:04;;;;;;;0.40;0.40;;;15.70;92.40;;;;;;5093060;28;20232;-64
2022/12/31 08:26:06;;;;;;;0.40;0.40;;;15.70;92.30;;;;;;5094452;28;20243;-64
2022/12/31 08:29:13;;;;;;;0.40;0.40;;;15.70;92.30;;;;;;5093464;28;20191;-65
2022/12/31 08:32:12;;;;;;;0.40;0.40;;;15.60;92.30;;;;;;5094335;28;20199;-65
2022/12/31 08:35:13;;;;;;;0.40;0.40;;;15.70;92.40;;;;;;5092162;28;20635;-65
2022/12/31 08:38:10;;;;;;;0.40;0.40;;;15.60;92.30;;;;;;5093280;28;20227;-65
2022/12/31 08:41:04;;;;;;;0.40;0.40;;;15.70;92.40;;;;;;5093600;28;20683;-65
2022/12/31 08:44:03;;;;;;;0.40;0.40;;;15.70;92.40;;;;;;5091606;28;20289;-64
2022/12/31 08:46:59;;;;;;;0.40;0.40;;;15.70;92.40;;;;;;5093830;28;20220;-64
2022/12/31 08:49:48;;;;;;;0.40;0.40;;;15.70;92.40;;;;;;5091509;28;20245;-65
2022/12/31 08:52:36;;;;;;;0.40;0.40;;;15.70;92.40;;;;;;5092050;28;20242;-65
2022/12/31 08:55:25;;;;;;;0.40;0.40;;;15.70;92.50;;;;;;5093762;28;20745;-64
2022/12/31 08:58:25;;;;;;;0.40;0.40;;;15.70;92.50;;;;;;5092985;28;20356;-64
2022/12/31 09:01:19;;;;;;;0.40;0.40;;;15.70;92.50;;;;;;5093407;28;20227;-64
2022/12/31 09:04:16;;;;;;;0.40;0.40;;;15.70;92.50;;;;;;5093543;28;20212;-64
2022/12/31 09:07:06;;;;;;;0.40;0.40;;;15.70;92.50;;;;;;5093197;28;20230;-64
2022/12/31 09:10:03;;;;;;;0.40;0.40;;;15.70;92.50;;;;;;5091665;28;20203;-64
2022/12/31 09:13:01;;;;;;;0.40;0.40;;;15.70;92.50;;;;;;5093264;28;20302;-64
2022/12/31 09:15:57;;;;;;;0.40;0.40;;;15.70;92.50;;;;;;5092552;28;20227;-65
2022/12/31 09:18:46;;;;;;;0.40;0.40;;;15.70;92.50;;;;;;5093277;28;20200;-64
2022/12/31 09:21:36;;;;;;;0.40;0.40;;;15.80;92.50;;;;;;5092725;28;20638;-64
2022/12/31 09:24:25;;;;;;;0.40;0.40;;;15.80;92.50;;;;;;5091971;28;20204;-64
2022/12/31 09:27:18;;;;;;;0.40;0.40;;;15.80;92.50;;;;;;5093547;28;20303;-64
2022/12/31 09:30:17;;;;;;;0.40;0.40;;;15.80;92.50;;;;;;5091941;28;20203;-64
2022/12/31 09:33:11;;;;;;;0.40;0.40;;;15.80;92.50;;;;;;5092297;28;20233;-64
2022/12/31 09:36:06;;;;;;;0.40;0.40;;;15.80;92.50;;;;;;5093278;28;20203;-64
2022/12/31 09:39:02;;;;;;;0.40;0.40;;;15.80;92.50;;;;;;5092696;28;20245;-65
2022/12/31 09:42:29;;;;;;;0.40;0.40;;;15.80;92.50;;;;;;5093032;28;20670;-65
2022/12/31 09:45:35;;;;;;;0.40;0.40;;;15.90;92.50;;;;;;5092167;28;20285;-64
2022/12/31 09:48:49;;;;;;;0.40;0.40;;;15.90;92.50;;;;;;5094060;28;20211;-64
2022/12/31 09:51:48;;;;;;;0.40;0.40;;;15.90;92.50;;;;;;5093572;28;20204;-64
2022/12/31 09:54:50;;;;;;;0.40;0.40;;;15.80;92.40;;;;;;5091755;28;20681;-64
2022/12/31 09:57:40;;;;;;;0.40;0.40;;;15.90;92.50;;;;;;5092784;28;20301;-64
2022/12/31 10:00:38;;;;;;;0.40;0.40;;;15.80;92.40;;;;;;5091701;28;20554;-64
2022/12/31 10:03:43;;;;;;;0.40;0.40;;;15.80;92.40;;;;;;5092706;28;20200;-64
2022/12/31 10:06:39;;;;;;;0.40;0.40;;;15.90;92.50;;;;;;5092434;28;20220;-64
2022/12/31 10:09:42;;;;;;;0.40;0.40;;;15.90;92.60;;;;;;5091823;28;20241;-64
2022/12/31 10:12:59;;;;;;;0.40;0.40;;;15.80;92.50;;;;;;5094514;28;20231;-65
2022/12/31 10:16:22;;;;;;;0.40;0.40;;;15.90;92.60;;;;;;5096499;28;20196;-65
2022/12/31 10:19:28;;;;;;;0.40;0.40;;;15.90;92.70;;;;;;5095325;28;20695;-64
2022/12/31 10:22:44;;;;;;;0.40;0.40;;;15.90;92.70;;;;;;5095778;28;20199;-65
2022/12/31 10:25:58;;;;;;;0.40;0.40;;;15.90;92.80;;;;;;5094885;28;20200;-65
2022/12/31 10:28:54;;;;;;;0.40;0.40;;;15.90;92.80;;;;;;5095313;28;20245;-64
2022/12/31 10:31:54;;;;;;;0.40;0.40;;;15.90;92.80;;;;;;5094701;28;20620;-65
2022/12/31 10:34:53;;;;;;;0.40;0.40;;;15.90;92.80;;;;;;5094806;28;20228;-65
2022/12/31 10:37:49;;;;;;;0.40;0.40;;;15.90;93.00;;;;;;5095767;28;20260;-65
2022/12/31 10:41:14;;;;;;;0.40;0.40;;;15.90;92.80;;;;;;5094492;28;20196;-65
2022/12/31 10:44:44;;;;;;;0.40;0.40;;;15.90;92.80;;;;;;5059415;28;20204;-65
2022/12/31 10:48:18;;;;;;;0.40;0.40;;;15.90;92.90;;;;;;5095547;28;20223;-64
2022/12/31 10:51:34;;;;;;;0.40;0.40;;;15.90;93.30;;;;;;5093710;28;20235;-63
2022/12/31 10:54:52;;;;;;;0.40;0.40;;;15.90;92.90;;;;;;5093742;28;20227;-65
2022/12/31 10:58:05;;;;;;;0.40;0.40;;;15.90;93.00;;;;;;5095429;28;20516;-64
2022/12/31 11:00:59;;;;;;;0.40;0.40;;;15.90;93.00;;;;;;5094502;28;20200;-65
2022/12/31 11:04:19;;;;;;;0.40;0.40;;;15.90;93.00;;;;;;5095304;28;20691;-65
2022/12/31 11:07:37;;;;;;;0.40;0.40;;;15.90;93.00;;;;;;5094486;28;20261;-65
2022/12/31 11:11:04;;;;;;;0.40;0.40;;;15.90;93.10;;;;;;5095472;28;20281;-65
2022/12/31 11:14:34;;;;;;;0.40;0.40;;;15.90;93.20;;;;;;5084162;28;20694;-65
2022/12/31 11:17:36;;;;;;;0.40;0.40;;;15.90;93.00;;;;;;5094297;28;20232;-64
2022/12/31 11:21:03;;;;;;;0.40;0.40;;;15.90;93.30;;;;;;5091841;28;20411;-65
2022/12/31 11:23:59;;;;;;;0.40;0.40;;;15.90;93.20;;;;;;5093658;28;20204;-65
2022/12/31 11:27:03;;;;;;;0.40;0.40;;;15.90;93.30;;;;;;5095005;28;20270;-65
2022/12/31 11:30:04;;;;;;;0.40;0.40;;;15.90;93.10;;;;;;5092302;28;20345;-65
2022/12/31 11:33:06;;;;;;;0.40;0.40;;;15.90;93.30;;;;;;5094597;28;20332;-64
2022/12/31 11:36:13;;;;;;;0.40;0.40;;;16.00;93.20;;;;;;5093355;28;20196;-65
2022/12/31 11:39:19;;;;;;;0.40;0.40;;;16.00;93.30;;;;;;5093280;28;20208;-65
2022/12/31 11:42:20;;;;;;;0.40;0.40;;;17.30;93.70;;;;;;5093953;28;20593;-65
2022/12/31 11:45:23;;;;;;;0.40;0.40;;;16.00;93.10;;;;;;5091903;28;20692;-65
2022/12/31 11:48:19;;;;;;;0.40;0.40;;;16.00;93.00;;;;;;5093518;28;20259;-65
2022/12/31 11:51:42;;;;;;;0.40;0.40;;;16.00;93.20;;;;;;5093278;28;20230;-65
2022/12/31 11:54:57;;;;;;;0.40;0.40;;;16.00;93.10;;;;;;5094590;28;20207;-65
2022/12/31 11:57:49;;;;;;;0.40;0.40;;;16.00;93.10;;;;;;5092755;28;20216;-65
2022/12/31 12:00:40;;;;;;;0.40;0.40;;;16.00;93.00;;;;;;5093484;28;20200;-65
2022/12/31 12:03:29;;;;;;;0.40;0.40;;;16.00;93.10;;;;;;5093519;28;20291;-65
2022/12/31 12:06:23;;;;;;;0.40;0.40;;;16.00;92.80;;;;;;5092718;28;20200;-65
2022/12/31 12:09:15;;;;;;;0.40;0.40;;;16.00;93.00;;;;;;5093445;28;20211;-65
2022/12/31 12:12:05;;;;;;;0.40;0.40;;;16.00;92.90;;;;;;5093312;28;20224;-65
2022/12/31 12:14:54;;;;;;;0.40;0.40;;;16.00;92.90;;;;;;5091484;28;20200;-65
2022/12/31 12:17:49;;;;;;;0.40;0.40;;;16.00;93.00;;;;;;5093252;28;20707;-65
2022/12/31 12:20:39;;;;;;;2.58;1.77;;;16.00;93.00;;;;;;5092627;28;20208;-64
2022/12/31 12:23:28;;;;;;;0.40;0.40;;;16.00;93.00;;;;;;5094329;28;20208;-65
2022/12/31 12:26:27;;;;;;;0.40;0.40;;;16.00;92.80;;;;;;5092837;28;20192;-64
2022/12/31 12:29:19;;;;;;;0.40;0.40;;;16.00;93.00;;;;;;5092900;28;20196;-65
2022/12/31 12:32:19;;;;;;;0.40;0.40;;;16.00;93.00;;;;;;5092559;28;20231;-65
2022/12/31 12:35:15;;;;;;;0.40;0.40;;;16.00;93.10;;;;;;5092122;28;20297;-65
2022/12/31 12:38:05;;;;;;;0.40;0.40;;;16.00;93.00;;;;;;5115527;22;20239;-71
2022/12/31 12:40:57;;;;;;;0.40;0.40;;;16.00;93.00;;;;;;5093479;28;20675;-70
2022/12/31 12:43:45;;;;;;;0.40;0.40;;;16.00;93.00;;;;;;5094403;28;20227;-70
2022/12/31 12:46:38;;;;;;;0.40;0.40;;;16.00;93.00;;;;;;5096298;28;20529;-69
2022/12/31 12:49:39;;;;;;;0.40;0.40;;;16.00;93.10;;;;;;5094060;28;20642;-69
2022/12/31 12:52:45;;;;;;;1.13;1.13;;;16.00;93.10;;;;;;5095335;28;20199;-70
2022/12/31 12:55:40;;;;;;;0.40;0.40;;;16.00;93.00;;;;;;5094409;28;20192;-71
2022/12/31 12:58:44;;;;;;;0.40;0.40;;;16.00;93.40;;;;;;5095690;28;20289;-71
2022/12/31 13:01:40;;;;;;;0.40;0.40;;;16.00;93.10;;;;;;5093940;28;20463;-69
2022/12/31 13:04:48;;;;;;;0.40;0.40;;;16.00;93.00;;;;;;5095124;28;20200;-70
2022/12/31 13:07:51;;;;;;;0.40;0.40;;;16.00;93.10;;;;;;5093511;28;20251;-70
2022/12/31 13:11:03;;;;;;;0.40;0.40;;;16.00;93.00;;;;;;5094014;28;20282;-70
2022/12/31 13:13:58;;;;;;;0.40;0.40;;;16.00;93.00;;;;;;5095408;28;20657;-71
2022/12/31 13:16:55;;;;;;;0.40;0.40;;;16.00;93.20;;;;;;5093655;28;20219;-71
2022/12/31 13:19:50;;;;;;;0.40;0.40;;;16.00;93.20;;;;;;5093733;28;20188;-70
2022/12/31 13:22:43;;;;;;;0.40;0.40;;;16.00;93.10;;;;;;5094151;28;20551;-69
2022/12/31 13:25:40;;;;;;;0.40;0.40;;;16.00;93.10;;;;;;5094641;28;20686;-71
2022/12/31 13:28:31;;;;;;;0.40;0.40;;;16.00;93.10;;;;;;5093995;28;20247;-71
2022/12/31 13:31:26;;;;;;;0.40;0.40;;;16.00;93.50;;;;;;5094604;28;20231;-70
2022/12/31 13:34:17;;;;;;;0.40;0.40;;;16.00;93.10;;;;;;5094294;28;20199;-71
2022/12/31 13:37:21;;;;;;;0.40;0.40;;;16.00;93.10;;;;;;5094428;28;20238;-70
2022/12/31 13:40:21;;;;;;;0.40;0.40;;;16.00;93.20;;;;;;5094241;28;20208;-71
2022/12/31 13:43:16;;;;;;;0.40;0.40;;;16.00;93.20;;;;;;5095605;28;20326;-71
2022/12/31 13:46:11;;;;;;;0.40;0.40;;;16.10;93.30;;;;;;5098565;28;20261;-70
2022/12/31 13:49:03;;;;;;;0.40;0.40;;;16.10;93.30;;;;;;5098524;28;20219;-69
2022/12/31 13:51:58;;;;;;;0.40;0.40;;;16.10;93.30;;;;;;5099167;28;20224;-71
2022/12/31 13:54:55;;;;;;;0.40;0.40;;;16.00;93.20;;;;;;5098466;28;20208;-69
2022/12/31 13:57:49;;;;;;;0.40;0.40;;;16.00;93.20;;;;;;5098811;28;20216;-72
2022/12/31 14:00:43;;;;;;;0.40;0.40;;;16.10;93.40;;;;;;5097410;28;20192;-71
2022/12/31 14:03:40;;;;;;;0.40;0.40;;;16.10;93.30;;;;;;5096521;28;20236;-72
2022/12/31 14:06:33;;;;;;;0.40;0.40;;;16.10;93.30;;;;;;5098087;28;20279;-70
2022/12/31 14:09:24;;;;;;;0.40;0.40;;;16.10;93.70;;;;;;5098103;28;20227;-72
2022/12/31 14:12:27;;;;;;;0.40;0.40;;;16.10;93.40;;;;;;5097330;28;20623;-70
2022/12/31 14:15:24;;;;;;;0.40;0.40;;;16.10;93.50;;;;;;5097934;28;20245;-70
2022/12/31 14:18:19;;;;;;;0.40;0.40;;;16.10;93.40;;;;;;5097055;28;20567;-70
2022/12/31 14:21:14;;;;;;;0.40;0.40;;;16.10;93.60;;;;;;5098267;28;20669;-70
2022/12/31 14:24:12;;;;;;;0.40;0.40;;;16.10;93.50;;;;;;5096897;28;20277;-71
2022/12/31 14:27:05;;;;;;;0.40;0.40;;;16.10;93.50;;;;;;5097300;28;20216;-71
2022/12/31 14:29:58;;;;;;;0.40;0.40;;;16.10;93.50;;;;;;5096152;28;20252;-69
2022/12/31 14:33:01;;;;;;;0.40;0.40;;;16.10;93.60;;;;;;5098711;28;20196;-72
2022/12/31 14:35:59;;;;;;;0.40;0.40;;;16.10;93.60;;;;;;5097210;28;20218;-71
2022/12/31 14:39:13;;;;;;;0.40;0.40;;;16.10;93.50;;;;;;5096577;28;20203;-71
2022/12/31 14:42:13;;;;;;;0.40;0.40;;;16.10;93.50;;;;;;5098126;28;20265;-73
2022/12/31 14:45:17;;;;;;;0.40;0.40;;;16.10;93.40;;;;;;5097769;28;20200;-69
2022/12/31 14:48:16;;;;;;;0.40;0.40;;;16.10;93.30;;;;;;5098414;28;20250;-71
2022/12/31 14:51:11;;;;;;;0.40;0.40;;;16.10;93.30;;;;;;5095901;28;20699;-72
2022/12/31 14:53:59;;;;;;;0.40;0.40;;;16.10;93.30;;;;;;5095581;28;20303;-71
2022/12/31 14:56:47;;;;;;;0.40;0.40;;;16.10;93.30;;;;;;5095425;28;20599;-71
2022/12/31 14:59:36;;;;;;;0.40;0.40;;;16.10;93.30;;;;;;5096857;28;20196;-71
2022/12/31 15:02:29;;;;;;;0.40;0.40;;;16.10;93.30;;;;;;5095673;28;20196;-70
2022/12/31 15:05:22;;;;;;;0.40;0.40;;;16.10;93.30;;;;;;5097214;28;20192;-71
2022/12/31 15:08:26;;;;;;;0.40;0.40;;;16.10;93.30;;;;;;5096281;28;20220;-70
2022/12/31 15:11:35;;;;;;;0.40;0.40;;;16.10;93.20;;;;;;5096377;28;20204;-71
2022/12/31 15:14:43;;;;;;;0.40;0.40;;;16.10;93.30;;;;;;5095926;28;20722;-71
2022/12/31 15:17:44;;;;;;;0.40;0.40;;;16.10;93.20;;;;;;5094639;28;20251;-71
2022/12/31 15:20:47;;;;;;;0.40;0.40;;;16.10;93.30;;;;;;5096223;28;20222;-72
2022/12/31 15:23:36;;;;;;;0.40;0.40;;;16.10;93.30;;;;;;5096682;28;20244;-71
2022/12/31 15:26:27;;;;;;;0.40;0.40;;;16.10;93.30;;;;;;5096853;28;20329;-70
2022/12/31 15:29:25;;;;;;;0.40;0.40;;;16.10;93.30;;;;;;5095300;28;20647;-71